createdAt,value
2023-04-04T00:00:34.706Z,31.19
2023-04-04T00:01:34.713Z,31.26
2023-04-04T00:02:34.728Z,31.18
2023-04-04T00:03:34.817Z,31.20
2023-04-04T00:04:34.711Z,31.24
2023-04-04T00:05:34.689Z,31.17
2023-04-04T00:06:34.617Z,31.19
2023-04-04T00:07:34.654Z,31.17
2023-04-04T00:08:34.652Z,31.18
2023-04-04T00:09:34.656Z,31.24
2023-04-04T00:10:34.618Z,31.17
2023-04-04T00:11:34.626Z,31.21
2023-04-04T00:12:34.630Z,31.20
2023-04-04T00:13:34.609Z,31.21
2023-04-04T00:14:34.595Z,31.18
2023-04-04T00:15:34.594Z,31.16
2023-04-04T00:16:34.635Z,31.18
2023-04-04T00:17:34.582Z,31.21
2023-04-04T00:18:34.565Z,31.24
2023-04-04T00:19:34.588Z,31.23
2023-04-04T00:20:34.589Z,31.21
2023-04-04T00:21:34.537Z,31.21
2023-04-04T00:22:34.528Z,31.18
2023-04-04T00:23:34.534Z,31.21
2023-04-04T00:24:34.531Z,31.24
2023-04-04T00:25:34.509Z,31.23
2023-04-04T00:26:34.629Z,31.14
2023-04-04T00:27:34.514Z,31.21
2023-04-04T00:28:34.529Z,31.20
2023-04-04T00:29:34.630Z,31.21
2023-04-04T00:30:34.539Z,31.25
2023-04-04T00:31:34.627Z,31.21
2023-04-04T00:32:34.677Z,31.24
2023-04-04T00:33:34.603Z,31.21
2023-04-04T00:34:34.610Z,31.27
2023-04-04T00:35:34.681Z,31.21
2023-04-04T00:36:34.641Z,31.23
2023-04-04T00:37:37.273Z,31.21
2023-04-04T00:38:34.842Z,31.24
2023-04-04T00:39:34.881Z,31.24
2023-04-04T00:40:34.916Z,31.21
2023-04-04T00:41:34.931Z,31.20
2023-04-04T00:42:34.920Z,31.21
2023-04-04T00:43:34.969Z,31.23
2023-04-04T00:44:34.951Z,31.22
2023-04-04T00:45:35.007Z,31.20
2023-04-04T00:46:34.971Z,31.24
2023-04-04T00:47:35.073Z,31.22
2023-04-04T00:48:35.013Z,31.22
2023-04-04T00:49:35.008Z,31.18
2023-04-04T00:50:35.058Z,31.17
2023-04-04T00:51:35.100Z,31.21
2023-04-04T00:52:35.127Z,31.20
2023-04-04T00:53:35.096Z,31.23
2023-04-04T00:54:35.121Z,31.24
2023-04-04T00:55:35.136Z,31.20
2023-04-04T00:56:35.169Z,31.22
2023-04-04T00:57:35.184Z,31.22
2023-04-04T00:58:35.168Z,31.25
2023-04-04T00:59:35.204Z,31.24
2023-04-04T01:00:35.238Z,31.21
2023-04-04T01:01:35.321Z,31.22
2023-04-04T01:02:35.285Z,31.24
2023-04-04T01:03:35.333Z,31.24
2023-04-04T01:04:35.373Z,31.24
2023-04-04T01:05:35.375Z,31.24
2023-04-04T01:06:35.400Z,31.21
2023-04-04T01:07:37.124Z,31.23
2023-04-04T01:08:35.413Z,31.21
2023-04-04T01:09:35.384Z,31.22
2023-04-04T01:10:35.442Z,31.23
2023-04-04T01:11:35.433Z,31.25
2023-04-04T01:12:35.499Z,31.21
2023-04-04T01:13:35.478Z,31.22
2023-04-04T01:14:35.504Z,31.21
2023-04-04T01:15:35.549Z,31.25
2023-04-04T01:16:35.560Z,31.29
2023-04-04T01:17:35.624Z,31.26
2023-04-04T01:18:35.586Z,31.26
2023-04-04T01:19:35.596Z,31.23
2023-04-04T01:20:35.638Z,31.25
2023-04-04T01:21:35.688Z,31.22
2023-04-04T01:22:35.648Z,31.25
2023-04-04T01:23:35.651Z,31.25
2023-04-04T01:24:35.701Z,31.23
2023-04-04T01:25:35.737Z,31.23
2023-04-04T01:26:35.737Z,31.25
2023-04-04T01:27:35.754Z,31.23
2023-04-04T01:28:35.763Z,31.26
2023-04-04T01:29:35.794Z,31.23
2023-04-04T01:30:35.868Z,31.25
2023-04-04T01:31:35.848Z,31.26
2023-04-04T01:32:35.893Z,31.22
2023-04-04T01:33:35.869Z,31.25
2023-04-04T01:34:35.862Z,31.22
2023-04-04T01:35:36.009Z,31.26
2023-04-04T01:36:35.927Z,31.26
2023-04-04T01:37:35.966Z,31.22
2023-04-04T01:38:35.976Z,31.25
2023-04-04T01:39:36.002Z,31.23
2023-04-04T01:40:35.964Z,31.26
2023-04-04T01:41:36.015Z,31.23
2023-04-04T01:42:36.064Z,31.23
2023-04-04T01:43:36.059Z,31.23
2023-04-04T01:44:36.069Z,31.26
2023-04-04T01:45:36.112Z,31.23
2023-04-04T01:46:36.181Z,31.29
2023-04-04T01:47:36.186Z,31.23
2023-04-04T01:48:36.166Z,31.27
2023-04-04T01:49:36.224Z,31.25
2023-04-04T01:50:36.204Z,31.25
2023-04-04T01:51:36.216Z,31.29
2023-04-04T01:52:36.327Z,31.27
2023-04-04T01:53:36.306Z,31.28
2023-04-04T01:54:36.300Z,31.27
2023-04-04T01:55:36.355Z,31.26
2023-04-04T01:56:36.368Z,31.26
2023-04-04T01:57:36.431Z,31.23
2023-04-04T01:58:36.398Z,31.26
2023-04-04T01:59:36.452Z,31.26
2023-04-04T02:00:36.490Z,31.23
2023-04-04T02:01:36.494Z,31.27
2023-04-04T02:02:36.544Z,31.23
2023-04-04T02:03:36.507Z,31.25
2023-04-04T02:04:36.560Z,31.20
2023-04-04T02:05:36.614Z,31.20
2023-04-04T02:06:36.635Z,31.24
2023-04-04T02:07:36.619Z,31.27
2023-04-04T02:08:36.673Z,31.32
2023-04-04T02:09:36.690Z,31.25
2023-04-04T02:10:36.694Z,31.30
2023-04-04T02:11:36.695Z,31.29
2023-04-04T02:12:36.728Z,31.29
2023-04-04T02:13:36.780Z,31.29
2023-04-04T02:14:36.776Z,31.30
2023-04-04T02:15:36.807Z,31.27
2023-04-04T02:16:36.854Z,31.30
2023-04-04T02:17:36.865Z,31.26
2023-04-04T02:18:36.847Z,31.29
2023-04-04T02:19:36.895Z,31.29
2023-04-04T02:20:36.934Z,31.27
2023-04-04T02:21:36.944Z,31.26
2023-04-04T02:22:36.990Z,31.30
2023-04-04T02:23:36.987Z,31.32
2023-04-04T02:24:36.989Z,31.27
2023-04-04T02:25:37.059Z,31.29
2023-04-04T02:26:37.035Z,31.26
2023-04-04T02:27:37.081Z,31.29
2023-04-04T02:28:37.167Z,31.29
2023-04-04T02:29:37.133Z,31.29
2023-04-04T02:30:37.198Z,31.27
2023-04-04T02:31:37.234Z,31.31
2023-04-04T02:32:37.281Z,31.29
2023-04-04T02:33:37.279Z,31.34
2023-04-04T02:34:37.283Z,31.30
2023-04-04T02:35:37.317Z,31.26
2023-04-04T02:36:37.357Z,31.27
2023-04-04T02:37:37.386Z,31.27
2023-04-04T02:38:37.433Z,31.30
2023-04-04T02:39:37.449Z,31.27
2023-04-04T02:40:37.492Z,31.29
2023-04-04T02:41:37.480Z,31.30
2023-04-04T02:42:37.525Z,31.23
2023-04-04T02:43:37.570Z,31.29
2023-04-04T02:44:37.609Z,31.30
2023-04-04T02:45:37.608Z,31.29
2023-04-04T02:46:37.633Z,31.30
2023-04-04T02:47:37.639Z,31.24
2023-04-04T02:48:37.659Z,31.34
2023-04-04T02:49:37.681Z,31.25
2023-04-04T02:50:37.715Z,31.32
2023-04-04T02:51:37.759Z,31.30
2023-04-04T02:52:37.766Z,31.30
2023-04-04T02:53:37.805Z,31.30
2023-04-04T02:54:37.883Z,31.28
2023-04-04T02:55:37.861Z,31.29
2023-04-04T02:56:37.887Z,31.29
2023-04-04T02:57:37.963Z,31.30
2023-04-04T02:58:37.938Z,31.30
2023-04-04T02:59:37.990Z,31.27
2023-04-04T03:00:38.072Z,31.27
2023-04-04T03:01:38.094Z,31.29
2023-04-04T03:02:38.210Z,31.27
2023-04-04T03:03:38.274Z,31.31
2023-04-04T03:04:38.113Z,31.28
2023-04-04T03:05:38.186Z,31.30
2023-04-04T03:06:38.173Z,31.34
2023-04-04T03:07:38.188Z,31.32
2023-04-04T03:08:38.238Z,31.27
2023-04-04T03:09:38.251Z,31.30
2023-04-04T03:10:38.422Z,31.31
2023-04-04T03:11:38.340Z,31.32
2023-04-04T03:12:38.367Z,31.28
2023-04-04T03:13:38.392Z,31.29
2023-04-04T03:14:38.435Z,31.35
2023-04-04T03:15:38.479Z,31.31
2023-04-04T03:16:38.562Z,31.32
2023-04-04T03:17:40.079Z,31.32
2023-04-04T03:18:38.564Z,31.28
2023-04-04T03:19:38.505Z,31.27
2023-04-04T03:20:38.659Z,31.34
2023-04-04T03:21:38.524Z,31.29
2023-04-04T03:22:38.525Z,31.31
2023-04-04T03:23:38.489Z,31.28
2023-04-04T03:24:39.325Z,31.35
2023-04-04T03:25:38.439Z,31.29
2023-04-04T03:26:38.494Z,31.37
2023-04-04T03:27:38.434Z,31.28
2023-04-04T03:28:38.466Z,31.26
2023-04-04T03:29:38.481Z,31.31
2023-04-04T03:30:38.660Z,31.29
2023-04-04T03:31:38.459Z,31.29
2023-04-04T03:32:38.453Z,31.32
2023-04-04T03:33:38.403Z,31.34
2023-04-04T03:34:38.412Z,31.31
2023-04-04T03:35:38.454Z,31.31
2023-04-04T03:36:38.413Z,31.29
2023-04-04T03:37:38.398Z,31.32
2023-04-04T03:38:38.427Z,31.29
2023-04-04T03:39:38.379Z,31.32
2023-04-04T03:40:38.397Z,31.35
2023-04-04T03:41:38.401Z,31.31
2023-04-04T03:42:38.452Z,31.31
2023-04-04T03:43:38.478Z,31.36
2023-04-04T03:44:38.533Z,31.34
2023-04-04T03:45:38.660Z,31.31
2023-04-04T03:46:38.750Z,31.38
2023-04-04T03:47:38.671Z,31.32
2023-04-04T03:48:38.701Z,31.33
2023-04-04T03:49:38.717Z,31.29
2023-04-04T03:50:38.968Z,31.36
2023-04-04T03:51:38.773Z,31.31
2023-04-04T03:52:38.826Z,31.32
2023-04-04T03:53:38.857Z,31.31
2023-04-04T03:54:38.864Z,31.35
2023-04-04T03:55:38.944Z,31.33
2023-04-04T03:56:38.966Z,31.39
2023-04-04T03:57:38.967Z,31.32
2023-04-04T03:58:39.015Z,31.39
2023-04-04T03:59:39.074Z,31.28
2023-04-04T04:00:39.246Z,31.32
2023-04-04T04:01:39.104Z,31.33
2023-04-04T04:02:39.297Z,31.29
2023-04-04T04:03:39.267Z,31.32
2023-04-04T04:04:39.389Z,31.32
2023-04-04T04:05:39.325Z,31.35
2023-04-04T04:06:39.314Z,31.33
2023-04-04T04:07:39.384Z,31.30
2023-04-04T04:08:39.427Z,31.29
2023-04-04T04:09:39.471Z,31.26
2023-04-04T04:10:39.798Z,31.17
2023-04-04T04:11:39.526Z,31.20
2023-04-04T04:12:39.558Z,31.12
2023-04-04T04:13:39.600Z,31.19
2023-04-04T04:14:39.627Z,31.15
2023-04-04T04:15:39.757Z,31.15
2023-04-04T04:16:39.702Z,31.13
2023-04-04T04:17:39.772Z,31.13
2023-04-04T04:18:40.347Z,31.03
2023-04-04T04:19:39.809Z,31.09
2023-04-04T04:20:39.914Z,30.99
2023-04-04T04:21:39.891Z,30.96
2023-04-04T04:22:39.929Z,30.96
2023-04-04T04:23:39.962Z,30.97
2023-04-04T04:24:40.020Z,30.93
2023-04-04T04:25:40.069Z,30.90
2023-04-04T04:26:40.102Z,30.87
2023-04-04T04:27:40.130Z,30.90
2023-04-04T04:28:40.171Z,30.90
2023-04-04T04:29:40.276Z,30.86
2023-04-04T04:30:40.476Z,30.84
2023-04-04T04:31:40.353Z,30.83
2023-04-04T04:32:40.375Z,30.79
2023-04-04T04:33:40.393Z,30.76
2023-04-04T04:34:40.457Z,30.74
2023-04-04T04:35:40.462Z,30.68
2023-04-04T04:36:40.539Z,30.77
2023-04-04T04:37:40.552Z,30.78
2023-04-04T04:38:40.599Z,30.85
2023-04-04T04:39:40.635Z,30.85
2023-04-04T04:40:40.922Z,30.87
2023-04-04T04:41:40.723Z,30.84
2023-04-04T04:42:40.748Z,30.88
2023-04-04T04:43:40.792Z,30.81
2023-04-04T04:44:40.829Z,30.80
2023-04-04T04:45:40.886Z,30.84
2023-04-04T04:46:41.039Z,30.90
2023-04-04T04:47:41.043Z,30.93
2023-04-04T04:48:41.027Z,30.88
2023-04-04T04:49:41.051Z,30.94
2023-04-04T04:50:41.225Z,30.93
2023-04-04T04:51:41.131Z,30.96
2023-04-04T04:52:41.160Z,30.96
2023-04-04T04:53:41.226Z,30.91
2023-04-04T04:54:41.247Z,30.99
2023-04-04T04:55:41.322Z,30.91
2023-04-04T04:56:41.316Z,30.96
2023-04-04T04:57:41.383Z,30.94
2023-04-04T04:58:41.425Z,30.96
2023-04-04T04:59:41.458Z,30.96
2023-04-04T05:00:41.842Z,30.99
2023-04-04T05:01:41.541Z,30.94
2023-04-04T05:02:41.742Z,30.94
2023-04-04T05:03:41.646Z,30.97
2023-04-04T05:04:41.653Z,30.96
2023-04-04T05:05:41.774Z,30.97
2023-04-04T05:06:41.798Z,31.01
2023-04-04T05:07:41.815Z,30.97
2023-04-04T05:08:41.884Z,30.99
2023-04-04T05:09:41.904Z,30.99
2023-04-04T05:10:42.179Z,31.00
2023-04-04T05:11:42.007Z,30.94
2023-04-04T05:12:42.076Z,31.00
2023-04-04T05:13:42.142Z,30.94
2023-04-04T05:14:42.184Z,30.99
2023-04-04T05:15:42.243Z,30.97
2023-04-04T05:16:42.299Z,30.97
2023-04-04T05:17:42.327Z,31.00
2023-04-04T05:18:42.373Z,30.99
2023-04-04T05:19:42.448Z,30.97
2023-04-04T05:20:42.583Z,31.00
2023-04-04T05:21:42.486Z,30.96
2023-04-04T05:22:42.541Z,30.94
2023-04-04T05:23:42.592Z,30.97
2023-04-04T05:24:42.624Z,30.97
2023-04-04T05:25:42.683Z,30.94
2023-04-04T05:26:42.761Z,30.97
2023-04-04T05:27:42.766Z,30.97
2023-04-04T05:28:42.782Z,30.96
2023-04-04T05:29:42.852Z,30.94
2023-04-04T05:30:43.122Z,30.97
2023-04-04T05:31:43.001Z,30.96
2023-04-04T05:32:43.006Z,30.95
2023-04-04T05:33:43.012Z,30.97
2023-04-04T05:34:43.074Z,30.96
2023-04-04T05:35:43.267Z,30.97
2023-04-04T05:36:43.143Z,30.96
2023-04-04T05:37:43.201Z,30.96
2023-04-04T05:38:43.222Z,30.93
2023-04-04T05:39:43.256Z,31.00
2023-04-04T05:40:43.295Z,30.95
2023-04-04T05:41:43.341Z,30.93
2023-04-04T05:42:43.372Z,30.93
2023-04-04T05:43:43.418Z,30.93
2023-04-04T05:44:43.468Z,30.89
2023-04-04T05:45:44.114Z,30.96
2023-04-04T05:46:43.536Z,30.93
2023-04-04T05:47:43.626Z,30.91
2023-04-04T05:48:43.586Z,30.93
2023-04-04T05:49:43.644Z,30.93
2023-04-04T05:50:43.667Z,30.94
2023-04-04T05:51:43.776Z,30.91
2023-04-04T05:52:43.794Z,30.95
2023-04-04T05:53:43.810Z,30.95
2023-04-04T05:54:43.848Z,30.92
2023-04-04T05:55:43.888Z,30.91
2023-04-04T05:56:43.922Z,30.92
2023-04-04T05:57:43.967Z,30.89
2023-04-04T05:58:44.083Z,30.92
2023-04-04T05:59:44.007Z,30.94
2023-04-04T06:00:44.053Z,30.91
2023-04-04T06:01:44.094Z,30.91
2023-04-04T06:02:44.231Z,30.91
2023-04-04T06:03:44.192Z,30.89
2023-04-04T06:04:44.224Z,30.92
2023-04-04T06:05:44.287Z,30.88
2023-04-04T06:06:44.281Z,30.93
2023-04-04T06:07:44.328Z,30.88
2023-04-04T06:08:53.615Z,30.92
2023-04-04T06:09:45.357Z,30.92
2023-04-04T06:10:44.338Z,30.87
2023-04-04T06:11:44.317Z,30.88
2023-04-04T06:12:44.327Z,30.88
2023-04-04T06:13:44.323Z,30.89
2023-04-04T06:14:44.304Z,30.89
2023-04-04T06:15:44.291Z,30.88
2023-04-04T06:16:44.308Z,30.90
2023-04-04T06:17:44.327Z,30.88
2023-04-04T06:18:44.281Z,30.83
2023-04-04T06:19:44.269Z,30.87
2023-04-04T06:20:44.286Z,30.83
2023-04-04T06:21:44.251Z,30.85
2023-04-04T06:22:44.297Z,30.84
2023-04-04T06:23:44.255Z,30.84
2023-04-04T06:24:44.307Z,30.84
2023-04-04T06:25:44.323Z,30.82
2023-04-04T06:26:44.376Z,30.90
2023-04-04T06:27:44.435Z,30.89
2023-04-04T06:28:44.429Z,30.87
2023-04-04T06:29:44.447Z,30.90
2023-04-04T06:30:44.490Z,30.83
2023-04-04T06:31:44.541Z,30.90
2023-04-04T06:32:44.539Z,30.89
2023-04-04T06:33:44.578Z,30.89
2023-04-04T06:34:44.646Z,30.81
2023-04-04T06:35:44.617Z,30.87
2023-04-04T06:36:44.667Z,30.87
2023-04-04T06:37:44.699Z,30.87
2023-04-04T06:38:44.719Z,30.84
2023-04-04T06:39:44.774Z,30.87
2023-04-04T06:40:44.787Z,30.89
2023-04-04T06:41:44.833Z,30.86
2023-04-04T06:42:44.819Z,30.84
2023-04-04T06:43:44.834Z,30.85
2023-04-04T06:44:44.849Z,30.86
2023-04-04T06:45:44.884Z,30.85
2023-04-04T06:46:44.952Z,30.83
2023-04-04T06:47:44.981Z,30.89
2023-04-04T06:48:44.958Z,30.89
2023-04-04T06:49:44.997Z,30.86
2023-04-04T06:50:44.991Z,30.86
2023-04-04T06:51:44.988Z,30.87
2023-04-04T06:52:45.044Z,30.85
2023-04-04T06:53:45.086Z,30.86
2023-04-04T06:54:45.077Z,30.82
2023-04-04T06:55:45.088Z,30.85
2023-04-04T06:56:45.111Z,30.79
2023-04-04T06:57:45.163Z,30.83
2023-04-04T06:58:45.205Z,30.80
2023-04-04T06:59:45.428Z,30.82
2023-04-04T07:00:45.172Z,30.80
2023-04-04T07:01:45.317Z,30.81
2023-04-04T07:02:45.287Z,30.81
2023-04-04T07:03:45.236Z,30.80
2023-04-04T07:04:45.251Z,30.78
2023-04-04T07:05:45.265Z,30.77
2023-04-04T07:06:45.331Z,30.77
2023-04-04T07:07:45.319Z,30.79
2023-04-04T07:08:45.343Z,30.77
2023-04-04T07:09:45.364Z,30.77
2023-04-04T07:10:45.580Z,30.72
2023-04-04T07:11:45.386Z,30.75
2023-04-04T07:12:45.371Z,30.71
2023-04-04T07:13:45.437Z,30.74
2023-04-04T07:14:45.438Z,30.71
2023-04-04T07:15:45.430Z,30.73
2023-04-04T07:16:45.471Z,30.70
2023-04-04T07:17:45.558Z,30.73
2023-04-04T07:18:45.485Z,30.68
2023-04-04T07:19:45.527Z,30.67
2023-04-04T07:20:45.510Z,30.71
2023-04-04T07:21:45.478Z,30.64
2023-04-04T07:22:45.555Z,30.73
2023-04-04T07:23:45.539Z,30.64
2023-04-04T07:24:45.551Z,30.73
2023-04-04T07:25:45.503Z,30.69
2023-04-04T07:26:45.586Z,30.65
2023-04-04T07:27:45.533Z,30.63
2023-04-04T07:28:45.597Z,30.64
2023-04-04T07:29:45.583Z,30.67
2023-04-04T07:30:45.584Z,30.63
2023-04-04T07:31:45.801Z,30.62
2023-04-04T07:32:45.582Z,30.66
2023-04-04T07:33:45.583Z,30.62
2023-04-04T07:34:45.591Z,30.61
2023-04-04T07:35:45.931Z,30.58
2023-04-04T07:36:45.625Z,30.58
2023-04-04T07:37:45.607Z,30.58
2023-04-04T07:38:46.995Z,30.59
2023-04-04T07:39:45.653Z,30.56
2023-04-04T07:40:45.652Z,30.55
2023-04-04T07:41:45.617Z,30.56
2023-04-04T07:42:45.651Z,30.61
2023-04-04T07:43:45.671Z,30.58
2023-04-04T07:44:45.697Z,30.55
2023-04-04T07:45:45.768Z,30.47
2023-04-04T07:46:47.895Z,30.08
2023-04-04T07:47:46.708Z,29.98
2023-04-04T07:48:45.669Z,30.09
2023-04-04T07:49:45.719Z,30.15
2023-04-04T07:50:45.634Z,30.21
2023-04-04T07:51:45.643Z,30.13
2023-04-04T07:52:45.647Z,30.14
2023-04-04T07:53:45.636Z,30.14
2023-04-04T07:54:45.591Z,30.13
2023-04-04T07:55:45.644Z,30.17
2023-04-04T07:56:45.588Z,30.13
2023-04-04T07:57:45.596Z,30.08
2023-04-04T07:58:45.625Z,30.13
2023-04-04T07:59:45.560Z,30.13
2023-04-04T08:00:45.609Z,30.01
2023-04-04T08:01:46.272Z,30.05
2023-04-04T08:02:45.649Z,30.04
2023-04-04T08:03:45.955Z,29.99
2023-04-04T08:04:45.573Z,29.90
2023-04-04T08:05:45.525Z,29.93
2023-04-04T08:06:45.531Z,29.91
2023-04-04T08:07:45.551Z,29.84
2023-04-04T08:08:45.505Z,29.87
2023-04-04T08:09:45.496Z,29.86
2023-04-04T08:10:45.494Z,29.84
2023-04-04T08:11:45.530Z,29.84
2023-04-04T08:12:45.567Z,29.82
2023-04-04T08:13:45.499Z,29.76
2023-04-04T08:14:45.489Z,29.73
2023-04-04T08:15:45.493Z,29.71
2023-04-04T08:16:45.455Z,29.74
2023-04-04T08:17:45.468Z,29.71
2023-04-04T08:18:45.456Z,29.63
2023-04-04T08:19:45.432Z,29.61
2023-04-04T08:20:45.414Z,29.66
2023-04-04T08:21:45.436Z,29.60
2023-04-04T08:22:45.434Z,29.56
2023-04-04T08:23:45.412Z,29.55
2023-04-04T08:24:45.407Z,29.56
2023-04-04T08:25:45.408Z,29.59
2023-04-04T08:26:49.241Z,29.54
2023-04-04T08:27:46.408Z,29.51
2023-04-04T08:28:45.427Z,29.47
2023-04-04T08:29:45.347Z,29.50
2023-04-04T08:30:45.351Z,29.44
2023-04-04T08:31:45.388Z,29.44
2023-04-04T08:32:45.350Z,29.42
2023-04-04T08:33:47.660Z,29.42
2023-04-04T08:34:45.519Z,29.40
2023-04-04T08:35:45.564Z,29.42
2023-04-04T08:36:45.543Z,29.37
2023-04-04T08:37:45.506Z,29.39
2023-04-04T08:38:45.535Z,29.34
2023-04-04T08:39:45.514Z,29.30
2023-04-04T08:40:45.523Z,29.27
2023-04-04T08:41:45.537Z,29.27
2023-04-04T08:42:45.503Z,29.30
2023-04-04T08:43:45.504Z,29.27
2023-04-04T08:44:45.533Z,29.23
2023-04-04T08:45:45.497Z,29.27
2023-04-04T08:46:45.864Z,29.19
2023-04-04T08:47:45.572Z,29.20
2023-04-04T08:48:45.531Z,29.22
2023-04-04T08:49:45.598Z,29.20
2023-04-04T08:50:45.530Z,29.20
2023-04-04T08:51:45.547Z,29.16
2023-04-04T08:52:45.548Z,29.13
2023-04-04T08:53:45.553Z,29.17
2023-04-04T08:54:45.565Z,29.17
2023-04-04T08:55:45.549Z,29.20
2023-04-04T08:56:45.540Z,29.16
2023-04-04T08:57:45.515Z,29.16
2023-04-04T08:58:45.590Z,29.12
2023-04-04T08:59:45.634Z,29.10
2023-04-04T09:00:45.561Z,29.10
2023-04-04T09:01:45.536Z,29.07
2023-04-04T09:02:45.605Z,29.15
2023-04-04T09:03:45.563Z,29.09
2023-04-04T09:04:51.361Z,29.12
2023-04-04T09:05:46.527Z,29.07
2023-04-04T09:06:45.554Z,29.05
2023-04-04T09:07:45.521Z,29.01
2023-04-04T09:08:45.520Z,29.02
2023-04-04T09:09:45.500Z,29.00
2023-04-04T09:10:45.545Z,29.01
2023-04-04T09:11:45.492Z,28.99
2023-04-04T09:12:45.491Z,28.95
2023-04-04T09:13:45.493Z,28.98
2023-04-04T09:14:45.500Z,28.98
2023-04-04T09:15:45.465Z,29.01
2023-04-04T09:16:45.537Z,28.99
2023-04-04T09:17:45.483Z,28.96
2023-04-04T09:18:45.426Z,28.92
2023-04-04T09:19:45.448Z,28.99
2023-04-04T09:20:45.456Z,28.94
2023-04-04T09:21:45.405Z,28.91
2023-04-04T09:22:45.428Z,28.91
2023-04-04T09:23:45.680Z,28.88
2023-04-04T09:24:45.425Z,28.94
2023-04-04T09:25:52.797Z,28.95
2023-04-04T09:26:46.417Z,28.92
2023-04-04T09:27:45.400Z,28.91
2023-04-04T09:28:45.395Z,28.85
2023-04-04T09:29:45.365Z,28.82
2023-04-04T09:30:45.377Z,28.80
2023-04-04T09:31:45.381Z,28.85
2023-04-04T09:32:45.358Z,28.87
2023-04-04T09:33:45.330Z,28.84
2023-04-04T09:34:45.368Z,28.78
2023-04-04T09:35:45.349Z,28.81
2023-04-04T09:36:45.306Z,28.85
2023-04-04T09:37:45.315Z,28.87
2023-04-04T09:38:45.849Z,28.80
2023-04-04T09:39:45.338Z,28.78
2023-04-04T09:40:45.646Z,28.78
2023-04-04T09:41:45.272Z,28.74
2023-04-04T09:42:45.302Z,28.74
2023-04-04T09:43:45.319Z,28.73
2023-04-04T09:44:45.278Z,28.71
2023-04-04T09:45:45.716Z,28.68
2023-04-04T09:46:45.339Z,28.64
2023-04-04T09:47:45.242Z,28.63
2023-04-04T09:48:45.218Z,28.70
2023-04-04T09:49:45.241Z,28.63
2023-04-04T09:50:45.203Z,28.66
2023-04-04T09:51:45.238Z,28.67
2023-04-04T09:52:45.200Z,28.65
2023-04-04T09:53:45.215Z,28.62
2023-04-04T09:54:48.364Z,28.56
2023-04-04T09:55:45.177Z,28.59
2023-04-04T09:56:45.184Z,28.53
2023-04-04T09:57:45.174Z,28.56
2023-04-04T09:58:55.886Z,28.55
2023-04-04T09:59:46.189Z,28.55
2023-04-04T10:00:45.162Z,28.52
2023-04-04T10:01:45.195Z,28.49
2023-04-04T10:02:45.175Z,28.47
2023-04-04T10:03:45.190Z,28.45
2023-04-04T10:04:48.917Z,28.43
2023-04-04T10:05:46.122Z,28.52
2023-04-04T10:06:45.129Z,28.47
2023-04-04T10:07:45.102Z,28.50
2023-04-04T10:08:45.121Z,28.46
2023-04-04T10:09:45.081Z,28.45
2023-04-04T10:10:45.778Z,28.46
2023-04-04T10:11:45.067Z,28.42
2023-04-04T10:12:45.073Z,28.45
2023-04-04T10:13:45.087Z,28.49
2023-04-04T10:14:45.054Z,28.47
2023-04-04T10:15:45.057Z,28.47
2023-04-04T10:16:45.066Z,28.46
2023-04-04T10:17:45.053Z,28.49
2023-04-04T10:18:45.034Z,28.43
2023-04-04T10:19:45.030Z,28.43
2023-04-04T10:20:44.998Z,28.38
2023-04-04T10:21:45.015Z,28.39
2023-04-04T10:22:45.088Z,28.41
2023-04-04T10:23:44.992Z,28.41
2023-04-04T10:24:45.022Z,28.38
2023-04-04T10:25:45.012Z,28.41
2023-04-04T10:26:45.040Z,28.35
2023-04-04T10:27:45.087Z,28.38
2023-04-04T10:28:45.099Z,28.34
2023-04-04T10:29:45.109Z,28.36
2023-04-04T10:30:55.770Z,28.34
2023-04-04T10:31:46.180Z,28.36
2023-04-04T10:32:45.224Z,28.41
2023-04-04T10:33:45.146Z,28.41
2023-04-04T10:34:45.158Z,28.32
2023-04-04T10:35:45.152Z,28.35
2023-04-04T10:36:45.119Z,28.42
2023-04-04T10:37:45.092Z,28.38
2023-04-04T10:38:45.096Z,28.39
2023-04-04T10:39:45.067Z,28.35
2023-04-04T10:40:45.081Z,28.38
2023-04-04T10:41:45.089Z,28.36
2023-04-04T10:42:46.984Z,28.37
2023-04-04T10:43:45.099Z,28.41
2023-04-04T10:44:45.154Z,28.32
2023-04-04T10:45:45.225Z,28.30
2023-04-04T10:46:45.280Z,28.37
2023-04-04T10:47:45.348Z,28.38
2023-04-04T10:48:45.364Z,28.41
2023-04-04T10:49:45.418Z,28.38
2023-04-04T10:50:45.484Z,28.35
2023-04-04T10:51:55.903Z,28.34
2023-04-04T10:52:46.459Z,28.34
2023-04-04T10:53:45.512Z,28.30
2023-04-04T10:54:45.472Z,28.33
2023-04-04T10:55:45.446Z,28.30
2023-04-04T10:56:45.423Z,28.30
2023-04-04T10:57:45.463Z,28.28
2023-04-04T10:58:45.513Z,28.31
2023-04-04T10:59:45.422Z,28.22
2023-04-04T11:00:45.487Z,28.24
2023-04-04T11:01:45.480Z,28.31
2023-04-04T11:02:45.618Z,28.30
2023-04-04T11:03:45.646Z,28.30
2023-04-04T11:04:45.680Z,28.34
2023-04-04T11:05:45.730Z,28.30
2023-04-04T11:06:45.831Z,28.31
2023-04-04T11:07:57.255Z,28.33
2023-04-04T11:08:46.865Z,28.27
2023-04-04T11:09:45.864Z,28.33
2023-04-04T11:10:45.829Z,28.30
2023-04-04T11:11:45.843Z,28.27
2023-04-04T11:12:45.807Z,28.31
2023-04-04T11:13:45.816Z,28.20
2023-04-04T11:14:45.824Z,28.24
2023-04-04T11:15:45.802Z,28.33
2023-04-04T11:16:45.883Z,28.30
2023-04-04T11:17:45.881Z,28.24
2023-04-04T11:18:46.032Z,28.30
2023-04-04T11:19:46.001Z,28.27
2023-04-04T11:20:46.032Z,28.23
2023-04-04T11:21:46.111Z,28.29
2023-04-04T11:22:46.181Z,28.29
2023-04-04T11:23:46.236Z,28.30
2023-04-04T11:24:46.311Z,28.26
2023-04-04T11:25:46.380Z,28.27
2023-04-04T11:26:46.417Z,28.22
2023-04-04T11:27:46.579Z,28.29
2023-04-04T11:28:46.530Z,28.27
2023-04-04T11:29:46.607Z,28.29
2023-04-04T11:30:46.662Z,28.29
2023-04-04T11:31:46.755Z,28.24
2023-04-04T11:32:53.309Z,28.30
2023-04-04T11:33:47.762Z,28.32
2023-04-04T11:34:46.776Z,28.27
2023-04-04T11:35:46.784Z,28.23
2023-04-04T11:36:46.793Z,28.26
2023-04-04T11:37:46.728Z,28.29
2023-04-04T11:38:46.740Z,28.30
2023-04-04T11:39:46.743Z,28.35
2023-04-04T11:40:46.713Z,28.37
2023-04-04T11:41:46.813Z,28.38
2023-04-04T11:42:46.833Z,28.39
2023-04-04T11:43:46.898Z,28.36
2023-04-04T11:44:46.976Z,28.42
2023-04-04T11:45:47.069Z,28.39
2023-04-04T11:46:48.552Z,28.43
2023-04-04T11:47:47.080Z,28.42
2023-04-04T11:48:47.082Z,28.42
2023-04-04T11:49:47.102Z,28.46
2023-04-04T11:50:47.086Z,28.42
2023-04-04T11:51:47.067Z,28.47
2023-04-04T11:52:47.044Z,28.47
2023-04-04T11:53:47.035Z,28.51
2023-04-04T11:54:47.083Z,28.52
2023-04-04T11:55:47.028Z,28.49
2023-04-04T11:56:47.036Z,28.54
2023-04-04T11:57:47.023Z,28.52
2023-04-04T11:58:47.033Z,28.56
2023-04-04T11:59:47.110Z,28.58
2023-04-04T12:00:47.031Z,28.55
2023-04-04T12:01:47.010Z,28.56
2023-04-04T12:02:47.023Z,28.58
2023-04-04T12:03:47.026Z,28.59
2023-04-04T12:04:47.005Z,28.57
2023-04-04T12:05:47.022Z,28.56
2023-04-04T12:06:46.974Z,28.56
2023-04-04T12:07:46.936Z,28.62
2023-04-04T12:08:46.959Z,28.63
2023-04-04T12:09:46.938Z,28.65
2023-04-04T12:10:46.952Z,28.71
2023-04-04T12:11:46.900Z,28.68
2023-04-04T12:12:46.905Z,28.70
2023-04-04T12:13:46.908Z,28.74
2023-04-04T12:14:46.916Z,28.68
2023-04-04T12:15:46.905Z,28.75
2023-04-04T12:16:46.885Z,28.73
2023-04-04T12:17:46.966Z,28.70
2023-04-04T12:18:47.003Z,28.78
2023-04-04T12:19:47.036Z,28.77
2023-04-04T12:20:47.131Z,28.79
2023-04-04T12:21:47.175Z,28.81
2023-04-04T12:22:47.237Z,28.71
2023-04-04T12:23:47.298Z,28.74
2023-04-04T12:24:47.352Z,28.73
2023-04-04T12:25:47.403Z,28.83
2023-04-04T12:26:47.526Z,28.80
2023-04-04T12:27:47.517Z,28.83
2023-04-04T12:28:47.583Z,28.84
2023-04-04T12:29:47.651Z,28.88
2023-04-04T12:30:47.683Z,28.90
2023-04-04T12:31:47.818Z,28.90
2023-04-04T12:32:47.833Z,28.91
2023-04-04T12:33:47.880Z,28.94
2023-04-04T12:34:49.943Z,28.93
2023-04-04T12:35:47.886Z,28.90
2023-04-04T12:36:47.860Z,28.91
2023-04-04T12:37:47.841Z,28.96
2023-04-04T12:39:31.678Z,28.97
2023-04-04T12:40:31.900Z,28.96
2023-04-04T12:41:32.006Z,29.00
2023-04-04T12:42:32.072Z,28.96
2023-04-04T12:43:32.315Z,28.97
2023-04-04T12:44:32.430Z,28.99
2023-04-04T12:45:32.620Z,28.97
2023-04-04T12:46:32.777Z,29.06
2023-04-04T12:47:32.829Z,29.03
2023-04-04T12:48:32.977Z,29.02
2023-04-04T12:49:33.072Z,29.03
2023-04-04T12:50:33.266Z,29.01
2023-04-04T12:51:33.341Z,29.02
2023-04-04T12:52:33.588Z,28.98
2023-04-04T12:53:33.614Z,28.98